sensor_id;sensor_type;location;lat;lon;timestamp;P1;durP1;ratioP1;P2;durP2;ratioP2
7495;SDS011;3789;47.064;15.482;2023-08-24T00:00:55;11.40;;;10.27;;
7495;SDS011;3789;47.064;15.482;2023-08-24T00:03:25;11.52;;;10.48;;
7495;SDS011;3789;47.064;15.482;2023-08-24T00:08:50;11.85;;;10.70;;
7495;SDS011;3789;47.064;15.482;2023-08-24T00:11:21;12.65;;;11.45;;
7495;SDS011;3789;47.064;15.482;2023-08-24T00:13:59;12.05;;;10.85;;
7495;SDS011;3789;47.064;15.482;2023-08-24T00:16:38;13.80;;;11.35;;
7495;SDS011;3789;47.064;15.482;2023-08-24T00:19:09;12.90;;;11.68;;
7495;SDS011;3789;47.064;15.482;2023-08-24T00:21:40;12.32;;;11.23;;
7495;SDS011;3789;47.064;15.482;2023-08-24T00:24:09;13.57;;;12.15;;
7495;SDS011;3789;47.064;15.482;2023-08-24T00:26:41;13.02;;;11.73;;
7495;SDS011;3789;47.064;15.482;2023-08-24T00:29:17;13.63;;;12.30;;
7495;SDS011;3789;47.064;15.482;2023-08-24T00:31:46;15.25;;;12.48;;
7495;SDS011;3789;47.064;15.482;2023-08-24T00:34:14;12.88;;;11.68;;
7495;SDS011;3789;47.064;15.482;2023-08-24T00:36:45;12.23;;;11.05;;
7495;SDS011;3789;47.064;15.482;2023-08-24T00:39:16;13.23;;;11.88;;
7495;SDS011;3789;47.064;15.482;2023-08-24T00:41:45;13.07;;;11.77;;
7495;SDS011;3789;47.064;15.482;2023-08-24T00:44:17;12.55;;;11.35;;
7495;SDS011;3789;47.064;15.482;2023-08-24T00:46:47;13.77;;;12.07;;
7495;SDS011;3789;47.064;15.482;2023-08-24T00:49:18;12.45;;;11.10;;
7495;SDS011;3789;47.064;15.482;2023-08-24T00:51:47;13.55;;;11.43;;
7495;SDS011;3789;47.064;15.482;2023-08-24T00:54:19;13.73;;;11.45;;
7495;SDS011;3789;47.064;15.482;2023-08-24T00:56:47;13.70;;;12.30;;
7495;SDS011;3789;47.064;15.482;2023-08-24T00:59:16;15.25;;;12.38;;
7495;SDS011;3789;47.064;15.482;2023-08-24T01:01:53;12.55;;;11.30;;
7495;SDS011;3789;47.064;15.482;2023-08-24T01:04:32;13.32;;;11.95;;
7495;SDS011;3789;47.064;15.482;2023-08-24T01:07:01;13.30;;;12.10;;
7495;SDS011;3789;47.064;15.482;2023-08-24T01:09:32;12.88;;;11.57;;
7495;SDS011;3789;47.064;15.482;2023-08-24T01:12:10;12.18;;;11.13;;
7495;SDS011;3789;47.064;15.482;2023-08-24T01:18:06;12.25;;;11.10;;
7495;SDS011;3789;47.064;15.482;2023-08-24T01:20:53;12.57;;;11.48;;
7495;SDS011;3789;47.064;15.482;2023-08-24T01:26:25;12.50;;;11.30;;
7495;SDS011;3789;47.064;15.482;2023-08-24T01:28:55;12.18;;;11.10;;
7495;SDS011;3789;47.064;15.482;2023-08-24T01:31:24;11.77;;;10.68;;
7495;SDS011;3789;47.064;15.482;2023-08-24T01:34:01;12.35;;;11.20;;
7495;SDS011;3789;47.064;15.482;2023-08-24T01:36:34;12.65;;;11.35;;
7495;SDS011;3789;47.064;15.482;2023-08-24T01:39:11;11.55;;;10.45;;
7495;SDS011;3789;47.064;15.482;2023-08-24T01:42:02;11.88;;;10.77;;
7495;SDS011;3789;47.064;15.482;2023-08-24T01:44:54;12.98;;;11.68;;
7495;SDS011;3789;47.064;15.482;2023-08-24T01:47:27;12.57;;;11.13;;
7495;SDS011;3789;47.064;15.482;2023-08-24T01:50:04;13.82;;;12.35;;
7495;SDS011;3789;47.064;15.482;2023-08-24T01:52:35;12.60;;;11.40;;
7495;SDS011;3789;47.064;15.482;2023-08-24T01:55:13;12.52;;;11.25;;
7495;SDS011;3789;47.064;15.482;2023-08-24T01:57:51;11.93;;;10.80;;
7495;SDS011;3789;47.064;15.482;2023-08-24T02:00:20;13.13;;;11.57;;
7495;SDS011;3789;47.064;15.482;2023-08-24T02:02:49;12.18;;;11.13;;
7495;SDS011;3789;47.064;15.482;2023-08-24T02:05:18;12.02;;;11.02;;
7495;SDS011;3789;47.064;15.482;2023-08-24T02:07:47;13.32;;;11.93;;
7495;SDS011;3789;47.064;15.482;2023-08-24T02:10:17;11.93;;;10.93;;
7495;SDS011;3789;47.064;15.482;2023-08-24T02:12:46;12.52;;;10.80;;
7495;SDS011;3789;47.064;15.482;2023-08-24T02:15:16;12.45;;;11.25;;
7495;SDS011;3789;47.064;15.482;2023-08-24T02:17:44;12.60;;;11.18;;
7495;SDS011;3789;47.064;15.482;2023-08-24T02:20:13;11.75;;;10.63;;
7495;SDS011;3789;47.064;15.482;2023-08-24T02:22:50;13.15;;;11.43;;
7495;SDS011;3789;47.064;15.482;2023-08-24T02:25:19;11.45;;;10.35;;
7495;SDS011;3789;47.064;15.482;2023-08-24T02:27:48;12.75;;;11.38;;
7495;SDS011;3789;47.064;15.482;2023-08-24T02:30:20;13.38;;;12.10;;
7495;SDS011;3789;47.064;15.482;2023-08-24T02:32:58;12.52;;;11.35;;
7495;SDS011;3789;47.064;15.482;2023-08-24T02:35:26;12.73;;;11.65;;
7495;SDS011;3789;47.064;15.482;2023-08-24T02:37:54;13.18;;;11.88;;
7495;SDS011;3789;47.064;15.482;2023-08-24T02:40:27;13.45;;;12.25;;
7495;SDS011;3789;47.064;15.482;2023-08-24T02:42:56;13.90;;;12.48;;
7495;SDS011;3789;47.064;15.482;2023-08-24T02:45:24;13.23;;;12.05;;
7495;SDS011;3789;47.064;15.482;2023-08-24T02:47:53;12.73;;;11.57;;
7495;SDS011;3789;47.064;15.482;2023-08-24T02:50:22;13.25;;;12.07;;
7495;SDS011;3789;47.064;15.482;2023-08-24T02:52:51;13.27;;;11.90;;
7495;SDS011;3789;47.064;15.482;2023-08-24T02:55:21;12.15;;;10.95;;
7495;SDS011;3789;47.064;15.482;2023-08-24T02:57:54;12.68;;;11.45;;
7495;SDS011;3789;47.064;15.482;2023-08-24T03:00:23;13.57;;;12.00;;
7495;SDS011;3789;47.064;15.482;2023-08-24T03:02:51;12.40;;;11.40;;
7495;SDS011;3789;47.064;15.482;2023-08-24T03:05:26;12.43;;;11.23;;
7495;SDS011;3789;47.064;15.482;2023-08-24T03:07:54;12.98;;;11.70;;
7495;SDS011;3789;47.064;15.482;2023-08-24T03:10:23;13.30;;;12.10;;
7495;SDS011;3789;47.064;15.482;2023-08-24T03:12:53;12.63;;;11.52;;
7495;SDS011;3789;47.064;15.482;2023-08-24T03:15:23;14.27;;;11.25;;
7495;SDS011;3789;47.064;15.482;2023-08-24T03:17:56;13.80;;;12.55;;
7495;SDS011;3789;47.064;15.482;2023-08-24T03:20:24;13.00;;;11.68;;
7495;SDS011;3789;47.064;15.482;2023-08-24T03:22:53;13.93;;;12.43;;
7495;SDS011;3789;47.064;15.482;2023-08-24T03:25:24;14.02;;;12.63;;
7495;SDS011;3789;47.064;15.482;2023-08-24T03:27:55;13.40;;;12.10;;
7495;SDS011;3789;47.064;15.482;2023-08-24T03:30:28;12.68;;;11.48;;
7495;SDS011;3789;47.064;15.482;2023-08-24T03:32:58;12.77;;;11.00;;
7495;SDS011;3789;47.064;15.482;2023-08-24T03:35:32;12.98;;;11.27;;
7495;SDS011;3789;47.064;15.482;2023-08-24T03:38:06;14.13;;;12.73;;
7495;SDS011;3789;47.064;15.482;2023-08-24T03:40:36;12.73;;;11.52;;
7495;SDS011;3789;47.064;15.482;2023-08-24T03:43:13;13.07;;;11.88;;
7495;SDS011;3789;47.064;15.482;2023-08-24T03:45:44;13.68;;;12.35;;
7495;SDS011;3789;47.064;15.482;2023-08-24T03:48:22;13.27;;;12.07;;
7495;SDS011;3789;47.064;15.482;2023-08-24T03:50:59;13.52;;;11.82;;
7495;SDS011;3789;47.064;15.482;2023-08-24T03:53:28;13.85;;;12.65;;
7495;SDS011;3789;47.064;15.482;2023-08-24T03:55:57;13.55;;;12.30;;
7495;SDS011;3789;47.064;15.482;2023-08-24T03:58:25;12.88;;;11.57;;
7495;SDS011;3789;47.064;15.482;2023-08-24T04:00:55;13.15;;;11.85;;
7495;SDS011;3789;47.064;15.482;2023-08-24T04:03:25;15.77;;;13.07;;
7495;SDS011;3789;47.064;15.482;2023-08-24T04:05:55;13.15;;;11.85;;
7495;SDS011;3789;47.064;15.482;2023-08-24T04:08:25;13.73;;;12.50;;
7495;SDS011;3789;47.064;15.482;2023-08-24T04:11:02;15.85;;;12.55;;
7495;SDS011;3789;47.064;15.482;2023-08-24T04:13:31;13.50;;;12.30;;
7495;SDS011;3789;47.064;15.482;2023-08-24T04:16:00;14.18;;;12.77;;
7495;SDS011;3789;47.064;15.482;2023-08-24T04:18:41;14.35;;;12.95;;
7495;SDS011;3789;47.064;15.482;2023-08-24T04:21:09;14.60;;;13.00;;
7495;SDS011;3789;47.064;15.482;2023-08-24T04:23:59;14.25;;;12.82;;
7495;SDS011;3789;47.064;15.482;2023-08-24T04:26:37;13.23;;;12.02;;
7495;SDS011;3789;47.064;15.482;2023-08-24T04:29:07;13.23;;;11.93;;
7495;SDS011;3789;47.064;15.482;2023-08-24T04:31:34;14.25;;;12.95;;
7495;SDS011;3789;47.064;15.482;2023-08-24T04:34:13;13.82;;;12.43;;
7495;SDS011;3789;47.064;15.482;2023-08-24T04:36:50;13.77;;;12.13;;
7495;SDS011;3789;47.064;15.482;2023-08-24T04:39:21;13.43;;;12.15;;
7495;SDS011;3789;47.064;15.482;2023-08-24T04:41:51;13.13;;;11.63;;
7495;SDS011;3789;47.064;15.482;2023-08-24T04:44:27;11.98;;;10.88;;
7495;SDS011;3789;47.064;15.482;2023-08-24T04:46:55;15.45;;;11.05;;
7495;SDS011;3789;47.064;15.482;2023-08-24T04:49:25;11.73;;;10.57;;
7495;SDS011;3789;47.064;15.482;2023-08-24T04:52:01;12.25;;;10.35;;
7495;SDS011;3789;47.064;15.482;2023-08-24T04:54:32;13.27;;;11.85;;
7495;SDS011;3789;47.064;15.482;2023-08-24T04:57:02;11.60;;;10.50;;
7495;SDS011;3789;47.064;15.482;2023-08-24T04:59:41;11.90;;;10.70;;
7495;SDS011;3789;47.064;15.482;2023-08-24T05:02:09;11.25;;;10.23;;
7495;SDS011;3789;47.064;15.482;2023-08-24T05:04:38;12.65;;;11.23;;
7495;SDS011;3789;47.064;15.482;2023-08-24T05:07:08;12.07;;;10.57;;
7495;SDS011;3789;47.064;15.482;2023-08-24T05:09:37;13.93;;;10.70;;
7495;SDS011;3789;47.064;15.482;2023-08-24T05:12:12;11.38;;;10.27;;
7495;SDS011;3789;47.064;15.482;2023-08-24T05:14:48;14.32;;;10.75;;
7495;SDS011;3789;47.064;15.482;2023-08-24T05:17:17;11.85;;;10.70;;
7495;SDS011;3789;47.064;15.482;2023-08-24T05:19:46;11.73;;;10.52;;
7495;SDS011;3789;47.064;15.482;2023-08-24T05:22:21;11.68;;;10.50;;
7495;SDS011;3789;47.064;15.482;2023-08-24T05:24:52;10.45;;;9.43;;
7495;SDS011;3789;47.064;15.482;2023-08-24T05:27:21;10.93;;;9.80;;
7495;SDS011;3789;47.064;15.482;2023-08-24T05:29:50;11.95;;;10.80;;
7495;SDS011;3789;47.064;15.482;2023-08-24T05:32:26;11.77;;;10.57;;
7495;SDS011;3789;47.064;15.482;2023-08-24T05:35:01;11.35;;;9.98;;
7495;SDS011;3789;47.064;15.482;2023-08-24T05:37:31;11.32;;;10.23;;
7495;SDS011;3789;47.064;15.482;2023-08-24T05:40:03;13.30;;;10.07;;
7495;SDS011;3789;47.064;15.482;2023-08-24T05:42:42;12.02;;;10.18;;
7495;SDS011;3789;47.064;15.482;2023-08-24T05:45:12;9.93;;;9.02;;
7495;SDS011;3789;47.064;15.482;2023-08-24T05:47:39;11.57;;;9.98;;
7495;SDS011;3789;47.064;15.482;2023-08-24T05:50:10;10.80;;;9.23;;
7495;SDS011;3789;47.064;15.482;2023-08-24T05:52:40;10.07;;;8.90;;
7495;SDS011;3789;47.064;15.482;2023-08-24T05:55:08;9.90;;;9.10;;
7495;SDS011;3789;47.064;15.482;2023-08-24T05:57:37;10.75;;;8.55;;
7495;SDS011;3789;47.064;15.482;2023-08-24T06:00:10;10.05;;;9.02;;
7495;SDS011;3789;47.064;15.482;2023-08-24T06:02:41;10.65;;;9.65;;
7495;SDS011;3789;47.064;15.482;2023-08-24T06:05:17;10.32;;;8.98;;
7495;SDS011;3789;47.064;15.482;2023-08-24T06:07:49;9.98;;;9.00;;
7495;SDS011;3789;47.064;15.482;2023-08-24T06:10:19;10.68;;;9.57;;
7495;SDS011;3789;47.064;15.482;2023-08-24T06:12:56;10.55;;;9.52;;
7495;SDS011;3789;47.064;15.482;2023-08-24T06:15:24;10.23;;;9.23;;
7495;SDS011;3789;47.064;15.482;2023-08-24T06:17:59;10.63;;;9.63;;
7495;SDS011;3789;47.064;15.482;2023-08-24T06:20:29;9.85;;;9.05;;
7495;SDS011;3789;47.064;15.482;2023-08-24T06:23:02;9.50;;;8.68;;
7495;SDS011;3789;47.064;15.482;2023-08-24T06:25:30;9.85;;;9.02;;
7495;SDS011;3789;47.064;15.482;2023-08-24T06:28:00;10.63;;;9.38;;
7495;SDS011;3789;47.064;15.482;2023-08-24T06:30:30;10.15;;;9.20;;
7495;SDS011;3789;47.064;15.482;2023-08-24T06:33:05;10.20;;;9.20;;
7495;SDS011;3789;47.064;15.482;2023-08-24T06:35:34;10.20;;;9.27;;
7495;SDS011;3789;47.064;15.482;2023-08-24T06:38:04;10.07;;;9.13;;
7495;SDS011;3789;47.064;15.482;2023-08-24T06:40:53;11.40;;;9.65;;
7495;SDS011;3789;47.064;15.482;2023-08-24T06:43:23;10.98;;;9.90;;
7495;SDS011;3789;47.064;15.482;2023-08-24T06:45:56;10.75;;;9.30;;
7495;SDS011;3789;47.064;15.482;2023-08-24T06:48:25;10.85;;;9.82;;
7495;SDS011;3789;47.064;15.482;2023-08-24T06:50:55;10.95;;;9.95;;
7495;SDS011;3789;47.064;15.482;2023-08-24T06:53:23;12.07;;;9.98;;
7495;SDS011;3789;47.064;15.482;2023-08-24T06:55:57;10.05;;;9.20;;
7495;SDS011;3789;47.064;15.482;2023-08-24T06:58:27;10.32;;;9.32;;
7495;SDS011;3789;47.064;15.482;2023-08-24T07:00:56;10.52;;;8.73;;
7495;SDS011;3789;47.064;15.482;2023-08-24T07:03:25;10.30;;;9.40;;
7495;SDS011;3789;47.064;15.482;2023-08-24T07:05:57;9.27;;;8.48;;
7495;SDS011;3789;47.064;15.482;2023-08-24T07:08:26;9.02;;;8.23;;
7495;SDS011;3789;47.064;15.482;2023-08-24T07:10:56;11.70;;;8.77;;
7495;SDS011;3789;47.064;15.482;2023-08-24T07:13:25;9.73;;;8.82;;
7495;SDS011;3789;47.064;15.482;2023-08-24T07:15:56;10.35;;;9.20;;
7495;SDS011;3789;47.064;15.482;2023-08-24T07:18:27;9.35;;;8.40;;
7495;SDS011;3789;47.064;15.482;2023-08-24T07:21:04;8.85;;;8.13;;
7495;SDS011;3789;47.064;15.482;2023-08-24T07:23:39;9.43;;;8.48;;
7495;SDS011;3789;47.064;15.482;2023-08-24T07:26:09;12.38;;;8.48;;
7495;SDS011;3789;47.064;15.482;2023-08-24T07:28:38;9.15;;;8.23;;
7495;SDS011;3789;47.064;15.482;2023-08-24T07:31:09;8.98;;;8.27;;
7495;SDS011;3789;47.064;15.482;2023-08-24T07:33:40;10.02;;;8.90;;
7495;SDS011;3789;47.064;15.482;2023-08-24T07:36:10;9.35;;;8.43;;
7495;SDS011;3789;47.064;15.482;2023-08-24T07:38:41;10.00;;;9.05;;
7495;SDS011;3789;47.064;15.482;2023-08-24T07:41:10;11.57;;;8.73;;
7495;SDS011;3789;47.064;15.482;2023-08-24T07:43:47;9.05;;;8.32;;
7495;SDS011;3789;47.064;15.482;2023-08-24T07:46:16;10.07;;;8.77;;
7495;SDS011;3789;47.064;15.482;2023-08-24T07:48:44;9.57;;;8.02;;
7495;SDS011;3789;47.064;15.482;2023-08-24T07:51:13;9.55;;;8.27;;
7495;SDS011;3789;47.064;15.482;2023-08-24T07:53:42;9.23;;;8.15;;
7495;SDS011;3789;47.064;15.482;2023-08-24T07:56:14;11.65;;;7.93;;
7495;SDS011;3789;47.064;15.482;2023-08-24T07:58:43;8.27;;;7.57;;
7495;SDS011;3789;47.064;15.482;2023-08-24T08:01:11;8.00;;;7.18;;
7495;SDS011;3789;47.064;15.482;2023-08-24T08:03:41;8.65;;;7.82;;
7495;SDS011;3789;47.064;15.482;2023-08-24T08:06:09;9.05;;;8.20;;
7495;SDS011;3789;47.064;15.482;2023-08-24T08:08:41;10.48;;;7.85;;
7495;SDS011;3789;47.064;15.482;2023-08-24T08:11:15;8.88;;;7.82;;
7495;SDS011;3789;47.064;15.482;2023-08-24T08:13:47;8.50;;;7.70;;
7495;SDS011;3789;47.064;15.482;2023-08-24T08:16:18;9.63;;;8.00;;
7495;SDS011;3789;47.064;15.482;2023-08-24T08:18:47;9.13;;;8.30;;
7495;SDS011;3789;47.064;15.482;2023-08-24T08:21:15;9.82;;;8.32;;
7495;SDS011;3789;47.064;15.482;2023-08-24T08:23:50;9.32;;;8.38;;
7495;SDS011;3789;47.064;15.482;2023-08-24T08:26:27;9.57;;;8.75;;
7495;SDS011;3789;47.064;15.482;2023-08-24T08:28:57;9.70;;;8.90;;
7495;SDS011;3789;47.064;15.482;2023-08-24T08:31:26;9.52;;;8.75;;
7495;SDS011;3789;47.064;15.482;2023-08-24T08:33:54;9.07;;;8.27;;
7495;SDS011;3789;47.064;15.482;2023-08-24T08:36:25;9.15;;;8.25;;
7495;SDS011;3789;47.064;15.482;2023-08-24T08:38:56;10.60;;;9.18;;
7495;SDS011;3789;47.064;15.482;2023-08-24T08:41:27;9.80;;;8.82;;
7495;SDS011;3789;47.064;15.482;2023-08-24T08:44:06;10.00;;;9.20;;
7495;SDS011;3789;47.064;15.482;2023-08-24T08:46:35;9.85;;;9.02;;
7495;SDS011;3789;47.064;15.482;2023-08-24T08:49:08;11.98;;;9.60;;
7495;SDS011;3789;47.064;15.482;2023-08-24T08:51:40;10.23;;;9.02;;
7495;SDS011;3789;47.064;15.482;2023-08-24T08:54:08;9.43;;;8.63;;
7495;SDS011;3789;47.064;15.482;2023-08-24T08:56:46;9.90;;;9.10;;
7495;SDS011;3789;47.064;15.482;2023-08-24T08:59:15;10.32;;;9.43;;
7495;SDS011;3789;47.064;15.482;2023-08-24T09:01:45;10.05;;;9.15;;
7495;SDS011;3789;47.064;15.482;2023-08-24T09:04:15;10.10;;;9.10;;
7495;SDS011;3789;47.064;15.482;2023-08-24T09:06:50;10.80;;;9.35;;
7495;SDS011;3789;47.064;15.482;2023-08-24T09:09:29;9.45;;;8.70;;
7495;SDS011;3789;47.064;15.482;2023-08-24T09:12:06;10.30;;;9.50;;
7495;SDS011;3789;47.064;15.482;2023-08-24T09:14:39;9.60;;;8.80;;
7495;SDS011;3789;47.064;15.482;2023-08-24T09:17:19;10.07;;;9.18;;
7495;SDS011;3789;47.064;15.482;2023-08-24T09:19:55;9.35;;;8.45;;
7495;SDS011;3789;47.064;15.482;2023-08-24T09:22:35;11.88;;;9.10;;
7495;SDS011;3789;47.064;15.482;2023-08-24T09:25:10;9.63;;;8.63;;
7495;SDS011;3789;47.064;15.482;2023-08-24T09:27:38;9.20;;;8.38;;
7495;SDS011;3789;47.064;15.482;2023-08-24T09:30:10;9.95;;;9.05;;
7495;SDS011;3789;47.064;15.482;2023-08-24T09:32:49;10.32;;;9.43;;
7495;SDS011;3789;47.064;15.482;2023-08-24T09:35:18;9.73;;;8.73;;
7495;SDS011;3789;47.064;15.482;2023-08-24T09:37:52;10.27;;;8.68;;
7495;SDS011;3789;47.064;15.482;2023-08-24T09:40:30;9.57;;;8.68;;
7495;SDS011;3789;47.064;15.482;2023-08-24T09:43:07;10.18;;;8.93;;
7495;SDS011;3789;47.064;15.482;2023-08-24T09:46:00;10.32;;;9.35;;
7495;SDS011;3789;47.064;15.482;2023-08-24T09:48:31;9.48;;;8.45;;
7495;SDS011;3789;47.064;15.482;2023-08-24T09:51:03;8.75;;;8.02;;
7495;SDS011;3789;47.064;15.482;2023-08-24T09:53:36;8.75;;;8.07;;
7495;SDS011;3789;47.064;15.482;2023-08-24T09:56:11;9.63;;;8.70;;
7495;SDS011;3789;47.064;15.482;2023-08-24T09:58:47;9.68;;;8.68;;
7495;SDS011;3789;47.064;15.482;2023-08-24T10:01:18;9.00;;;8.13;;
7495;SDS011;3789;47.064;15.482;2023-08-24T10:03:48;10.00;;;9.07;;
7495;SDS011;3789;47.064;15.482;2023-08-24T10:06:20;9.73;;;8.85;;
7495;SDS011;3789;47.064;15.482;2023-08-24T10:08:55;9.65;;;8.75;;
7495;SDS011;3789;47.064;15.482;2023-08-24T10:11:36;9.68;;;8.65;;
7495;SDS011;3789;47.064;15.482;2023-08-24T10:14:31;9.35;;;8.45;;
7495;SDS011;3789;47.064;15.482;2023-08-24T10:17:29;11.30;;;9.85;;
7495;SDS011;3789;47.064;15.482;2023-08-24T10:20:01;8.68;;;7.78;;
7495;SDS011;3789;47.064;15.482;2023-08-24T10:22:37;9.35;;;8.43;;
7495;SDS011;3789;47.064;15.482;2023-08-24T10:25:12;8.95;;;8.15;;
7495;SDS011;3789;47.064;15.482;2023-08-24T10:27:41;9.25;;;8.32;;
7495;SDS011;3789;47.064;15.482;2023-08-24T10:30:15;8.80;;;8.10;;
7495;SDS011;3789;47.064;15.482;2023-08-24T10:32:44;9.82;;;8.88;;
7495;SDS011;3789;47.064;15.482;2023-08-24T10:35:20;9.20;;;8.40;;
7495;SDS011;3789;47.064;15.482;2023-08-24T10:37:58;10.95;;;9.80;;
7495;SDS011;3789;47.064;15.482;2023-08-24T10:40:30;9.80;;;8.82;;
7495;SDS011;3789;47.064;15.482;2023-08-24T10:43:12;9.82;;;8.77;;
7495;SDS011;3789;47.064;15.482;2023-08-24T10:49:18;10.38;;;9.23;;
7495;SDS011;3789;47.064;15.482;2023-08-24T10:51:27;9.02;;;8.20;;
7495;SDS011;3789;47.064;15.482;2023-08-24T10:54:02;9.77;;;8.77;;
7495;SDS011;3789;47.064;15.482;2023-08-24T10:56:35;8.98;;;8.18;;
7495;SDS011;3789;47.064;15.482;2023-08-24T10:59:34;9.05;;;8.15;;
7495;SDS011;3789;47.064;15.482;2023-08-24T11:02:18;12.57;;;8.70;;
7495;SDS011;3789;47.064;15.482;2023-08-24T11:07:47;9.10;;;8.00;;
7495;SDS011;3789;47.064;15.482;2023-08-24T11:13:18;8.30;;;7.60;;
7495;SDS011;3789;47.064;15.482;2023-08-24T11:15:54;8.95;;;8.25;;
7495;SDS011;3789;47.064;15.482;2023-08-24T11:18:29;9.18;;;8.10;;
7495;SDS011;3789;47.064;15.482;2023-08-24T11:21:02;9.77;;;8.85;;
7495;SDS011;3789;47.064;15.482;2023-08-24T11:23:33;9.82;;;8.93;;
7495;SDS011;3789;47.064;15.482;2023-08-24T11:26:04;8.68;;;7.75;;
7495;SDS011;3789;47.064;15.482;2023-08-24T11:28:31;9.00;;;8.02;;
7495;SDS011;3789;47.064;15.482;2023-08-24T11:31:08;9.27;;;8.27;;
7495;SDS011;3789;47.064;15.482;2023-08-24T11:33:41;9.25;;;8.48;;
7495;SDS011;3789;47.064;15.482;2023-08-24T11:36:11;8.57;;;7.78;;
7495;SDS011;3789;47.064;15.482;2023-08-24T11:38:57;8.23;;;7.53;;
7495;SDS011;3789;47.064;15.482;2023-08-24T11:41:26;8.50;;;7.70;;
7495;SDS011;3789;47.064;15.482;2023-08-24T11:43:59;9.13;;;8.30;;
7495;SDS011;3789;47.064;15.482;2023-08-24T11:46:50;9.55;;;8.52;;
7495;SDS011;3789;47.064;15.482;2023-08-24T11:49:26;9.75;;;8.85;;
7495;SDS011;3789;47.064;15.482;2023-08-24T11:51:55;9.10;;;8.30;;
7495;SDS011;3789;47.064;15.482;2023-08-24T11:54:25;8.80;;;8.13;;
7495;SDS011;3789;47.064;15.482;2023-08-24T11:56:57;9.27;;;8.38;;
7495;SDS011;3789;47.064;15.482;2023-08-24T11:59:30;8.98;;;8.23;;
7495;SDS011;3789;47.064;15.482;2023-08-24T12:02:00;8.65;;;7.95;;
7495;SDS011;3789;47.064;15.482;2023-08-24T12:04:40;9.45;;;8.65;;
7495;SDS011;3789;47.064;15.482;2023-08-24T12:07:13;9.25;;;8.30;;
7495;SDS011;3789;47.064;15.482;2023-08-24T12:09:45;9.73;;;8.70;;
7495;SDS011;3789;47.064;15.482;2023-08-24T12:12:17;9.27;;;8.43;;
7495;SDS011;3789;47.064;15.482;2023-08-24T12:14:54;9.68;;;8.77;;
7495;SDS011;3789;47.064;15.482;2023-08-24T12:17:27;9.75;;;8.68;;
7495;SDS011;3789;47.064;15.482;2023-08-24T12:20:00;9.63;;;8.73;;
7495;SDS011;3789;47.064;15.482;2023-08-24T12:22:42;9.82;;;8.80;;
7495;SDS011;3789;47.064;15.482;2023-08-24T12:25:37;10.05;;;9.13;;
7495;SDS011;3789;47.064;15.482;2023-08-24T12:28:28;9.95;;;9.05;;
7495;SDS011;3789;47.064;15.482;2023-08-24T12:30:57;10.13;;;9.23;;
7495;SDS011;3789;47.064;15.482;2023-08-24T12:33:33;10.88;;;9.80;;
7495;SDS011;3789;47.064;15.482;2023-08-24T12:36:04;10.63;;;9.82;;
7495;SDS011;3789;47.064;15.482;2023-08-24T12:38:36;11.05;;;10.00;;
7495;SDS011;3789;47.064;15.482;2023-08-24T12:41:07;10.90;;;10.02;;
7495;SDS011;3789;47.064;15.482;2023-08-24T12:43:38;10.75;;;9.85;;
7495;SDS011;3789;47.064;15.482;2023-08-24T12:46:17;10.35;;;9.48;;
7495;SDS011;3789;47.064;15.482;2023-08-24T12:48:54;11.13;;;10.13;;
7495;SDS011;3789;47.064;15.482;2023-08-24T12:51:24;11.15;;;10.13;;
7495;SDS011;3789;47.064;15.482;2023-08-24T12:54:00;10.80;;;9.80;;
7495;SDS011;3789;47.064;15.482;2023-08-24T12:56:29;10.63;;;9.85;;
7495;SDS011;3789;47.064;15.482;2023-08-24T12:59:01;11.45;;;10.18;;
7495;SDS011;3789;47.064;15.482;2023-08-24T13:01:29;11.68;;;10.50;;
7495;SDS011;3789;47.064;15.482;2023-08-24T13:04:00;11.35;;;10.35;;
7495;SDS011;3789;47.064;15.482;2023-08-24T13:06:29;11.98;;;10.75;;
7495;SDS011;3789;47.064;15.482;2023-08-24T13:08:58;11.95;;;10.93;;
7495;SDS011;3789;47.064;15.482;2023-08-24T13:11:35;11.75;;;10.73;;
7495;SDS011;3789;47.064;15.482;2023-08-24T13:14:12;12.55;;;11.35;;
7495;SDS011;3789;47.064;15.482;2023-08-24T13:16:40;11.45;;;10.45;;
7495;SDS011;3789;47.064;15.482;2023-08-24T13:19:14;11.27;;;10.30;;
7495;SDS011;3789;47.064;15.482;2023-08-24T13:21:42;12.30;;;11.05;;
7495;SDS011;3789;47.064;15.482;2023-08-24T13:24:11;12.88;;;11.68;;
7495;SDS011;3789;47.064;15.482;2023-08-24T13:26:40;12.50;;;11.30;;
7495;SDS011;3789;47.064;15.482;2023-08-24T13:29:10;13.35;;;12.05;;
7495;SDS011;3789;47.064;15.482;2023-08-24T13:31:43;12.00;;;10.95;;
7495;SDS011;3789;47.064;15.482;2023-08-24T13:34:10;12.45;;;11.35;;
7495;SDS011;3789;47.064;15.482;2023-08-24T13:36:39;11.57;;;10.57;;
7495;SDS011;3789;47.064;15.482;2023-08-24T13:39:08;11.77;;;10.68;;
7495;SDS011;3789;47.064;15.482;2023-08-24T13:41:39;12.52;;;10.98;;
7495;SDS011;3789;47.064;15.482;2023-08-24T13:44:09;12.75;;;11.55;;
7495;SDS011;3789;47.064;15.482;2023-08-24T13:46:44;12.43;;;11.32;;
7495;SDS011;3789;47.064;15.482;2023-08-24T13:49:15;12.02;;;10.80;;
7495;SDS011;3789;47.064;15.482;2023-08-24T13:52:05;11.73;;;10.50;;
7495;SDS011;3789;47.064;15.482;2023-08-24T13:54:40;12.82;;;11.82;;
7495;SDS011;3789;47.064;15.482;2023-08-24T13:57:33;12.13;;;10.65;;
7495;SDS011;3789;47.064;15.482;2023-08-24T14:00:11;11.23;;;10.32;;
7495;SDS011;3789;47.064;15.482;2023-08-24T14:02:47;11.93;;;10.93;;
7495;SDS011;3789;47.064;15.482;2023-08-24T14:05:25;12.25;;;11.10;;
7495;SDS011;3789;47.064;15.482;2023-08-24T14:08:04;12.18;;;11.02;;
7495;SDS011;3789;47.064;15.482;2023-08-24T14:10:35;12.57;;;11.57;;
7495;SDS011;3789;47.064;15.482;2023-08-24T14:13:06;12.90;;;11.60;;
7495;SDS011;3789;47.064;15.482;2023-08-24T14:15:37;12.48;;;11.48;;
7495;SDS011;3789;47.064;15.482;2023-08-24T14:18:14;13.18;;;12.05;;
7495;SDS011;3789;47.064;15.482;2023-08-24T14:20:44;13.93;;;12.48;;
7495;SDS011;3789;47.064;15.482;2023-08-24T14:23:21;12.50;;;11.50;;
7495;SDS011;3789;47.064;15.482;2023-08-24T14:25:51;12.00;;;11.00;;
7495;SDS011;3789;47.064;15.482;2023-08-24T14:28:24;13.13;;;11.60;;
7495;SDS011;3789;47.064;15.482;2023-08-24T14:31:23;13.95;;;12.63;;
7495;SDS011;3789;47.064;15.482;2023-08-24T14:33:56;13.38;;;12.27;;
7495;SDS011;3789;47.064;15.482;2023-08-24T14:36:24;14.10;;;12.80;;
7495;SDS011;3789;47.064;15.482;2023-08-24T14:38:52;12.77;;;11.77;;
7495;SDS011;3789;47.064;15.482;2023-08-24T14:41:21;13.55;;;12.35;;
7495;SDS011;3789;47.064;15.482;2023-08-24T14:43:49;13.68;;;12.20;;
7495;SDS011;3789;47.064;15.482;2023-08-24T14:46:21;13.02;;;12.02;;
7495;SDS011;3789;47.064;15.482;2023-08-24T14:48:48;14.20;;;12.82;;
7495;SDS011;3789;47.064;15.482;2023-08-24T14:51:20;14.05;;;12.75;;
7495;SDS011;3789;47.064;15.482;2023-08-24T14:53:49;13.82;;;12.48;;
7495;SDS011;3789;47.064;15.482;2023-08-24T14:56:26;13.40;;;12.20;;
7495;SDS011;3789;47.064;15.482;2023-08-24T14:59:03;13.65;;;12.10;;
7495;SDS011;3789;47.064;15.482;2023-08-24T15:01:34;13.73;;;12.27;;
7495;SDS011;3789;47.064;15.482;2023-08-24T15:04:04;13.38;;;12.07;;
7495;SDS011;3789;47.064;15.482;2023-08-24T15:06:35;13.50;;;12.07;;
7495;SDS011;3789;47.064;15.482;2023-08-24T15:09:06;14.00;;;12.60;;
7495;SDS011;3789;47.064;15.482;2023-08-24T15:11:34;14.63;;;13.20;;
7495;SDS011;3789;47.064;15.482;2023-08-24T15:14:12;13.55;;;12.38;;
7495;SDS011;3789;47.064;15.482;2023-08-24T15:16:41;14.05;;;12.85;;
7495;SDS011;3789;47.064;15.482;2023-08-24T15:19:09;13.48;;;11.98;;
7495;SDS011;3789;47.064;15.482;2023-08-24T15:21:40;13.18;;;11.98;;
7495;SDS011;3789;47.064;15.482;2023-08-24T15:24:10;14.40;;;13.02;;
7495;SDS011;3789;47.064;15.482;2023-08-24T15:26:46;14.48;;;12.95;;
7495;SDS011;3789;47.064;15.482;2023-08-24T15:29:28;13.93;;;12.60;;
7495;SDS011;3789;47.064;15.482;2023-08-24T15:31:58;14.02;;;12.82;;
7495;SDS011;3789;47.064;15.482;2023-08-24T15:34:28;14.00;;;12.60;;